Time;durP1;ratioP1;P1;durP2;ratioP2;P2;SDS_P1;SDS_P2;PMS_P1;PMS_P2;Temp;Humidity;BMP_temperature;BMP_pressure;BME280_temperature;BME280_humidity;BME280_pressure;Samples;Min_cycle;Max_cycle;Signal;HPM_P1;HPM_P2
2022/10/28 00:01:03;;;;;;;7.80;7.60;;;13.10;99.90;;;;;;5100459;28;20236;-80
2022/10/28 00:03:31;;;;;;;7.77;7.57;;;13.10;99.90;;;;;;5118771;22;20223;-88
2022/10/28 00:06:06;;;;;;;7.70;7.50;;;13.10;99.90;;;;;;5065671;28;20230;-88
2022/10/28 00:08:39;;;;;;;7.50;7.30;;;13.00;99.90;;;;;;5079596;28;20255;-89
2022/10/28 00:11:10;;;;;;;7.40;7.20;;;13.00;99.90;;;;;;5079296;28;20284;-88
2022/10/28 00:13:38;;;;;;;7.20;7.00;;;13.00;99.90;;;;;;5079539;28;20297;-88
2022/10/28 00:16:09;;;;;;;7.10;6.90;;;13.00;99.90;;;;;;5080016;28;20250;-88
2022/10/28 00:18:37;;;;;;;7.00;6.80;;;13.00;99.90;;;;;;5079691;28;20292;-89
2022/10/28 00:21:15;;;;;;;7.00;6.80;;;13.00;99.90;;;;;;5090860;27;20217;-89
2022/10/28 00:23:43;;;;;;;7.00;6.80;;;13.00;99.90;;;;;;5098714;27;20221;-88
2022/10/28 00:26:13;;;;;;;7.30;7.10;;;13.00;99.90;;;;;;5091932;28;20240;-89
2022/10/28 00:28:42;;;;;;;7.10;6.90;;;12.90;99.90;;;;;;5101508;27;20218;-89
2022/10/28 00:31:13;;;;;;;7.30;7.10;;;12.80;99.90;;;;;;5101658;27;20210;-88
2022/10/28 00:33:41;;;;;;;7.20;7.00;;;12.80;99.90;;;;;;5101726;27;20225;-89
2022/10/28 00:36:21;;;;;;;7.10;6.90;;;12.70;99.90;;;;;;5101583;27;20250;-89
2022/10/28 00:38:51;;;;;;;7.43;7.23;;;12.70;99.90;;;;;;5101202;27;20202;-89
2022/10/28 00:41:27;;;;;;;7.00;6.80;;;12.70;99.90;;;;;;5100985;28;20210;-88
2022/10/28 00:43:57;;;;;;;7.27;7.07;;;12.70;99.90;;;;;;5100360;28;20257;-88
2022/10/28 00:46:34;;;;;;;7.30;7.10;;;12.70;99.90;;;;;;5081154;28;20756;-88
2022/10/28 00:49:06;;;;;;;7.20;7.00;;;12.70;99.90;;;;;;5078945;28;20229;-86
2022/10/28 00:51:36;;;;;;;7.00;6.80;;;12.70;99.90;;;;;;5079139;28;20222;-87
2022/10/28 00:54:06;;;;;;;7.20;7.00;;;12.70;99.90;;;;;;5078830;28;20329;-87
2022/10/28 00:56:42;;;;;;;7.40;7.20;;;12.70;99.90;;;;;;5078733;28;20238;-87
2022/10/28 00:59:19;;;;;;;7.40;7.20;;;12.70;99.90;;;;;;5078247;28;20261;-87
2022/10/28 01:01:48;;;;;;;6.90;6.70;;;12.70;99.90;;;;;;5078113;28;20226;-88
2022/10/28 01:04:18;;;;;;;7.10;6.90;;;12.80;99.90;;;;;;5078551;28;20246;-87
2022/10/28 01:06:56;;;;;;;7.13;6.93;;;12.80;99.90;;;;;;5078847;28;20245;-87
2022/10/28 01:09:25;;;;;;;7.40;7.20;;;12.80;99.90;;;;;;5078592;28;20257;-87
2022/10/28 01:12:04;;;;;;;7.63;7.43;;;12.80;99.90;;;;;;5078872;28;20230;-87
2022/10/28 01:14:45;;;;;;;7.43;7.23;;;12.80;99.90;;;;;;5078346;28;20264;-87
2022/10/28 01:17:47;;;;;;;7.60;7.40;;;12.70;99.90;;;;;;5078715;28;20225;-87
2022/10/28 01:21:17;;;;;;;7.30;7.10;;;12.70;99.90;;;;;;5078304;28;20253;-87
2022/10/28 01:24:06;;;;;;;7.20;7.00;;;12.70;99.90;;;;;;5077752;28;20230;-88
2022/10/28 01:27:18;;;;;;;7.23;7.03;;;12.80;99.90;;;;;;5078004;28;20226;-86
2022/10/28 01:30:05;;;;;;;7.63;7.43;;;12.80;99.90;;;;;;5070552;28;20237;-88
2022/10/28 01:32:52;;;;;;;7.60;7.40;;;12.80;99.90;;;;;;5084888;28;20285;-88
2022/10/28 01:35:31;;;;;;;7.70;7.50;;;12.80;99.90;;;;;;5090703;28;20226;-87
2022/10/28 01:38:26;;;;;;;7.60;7.40;;;12.70;99.90;;;;;;5080992;28;20232;-88
2022/10/28 01:40:58;;;;;;;7.70;7.50;;;12.70;99.90;;;;;;5081069;28;20232;-88
2022/10/28 01:43:35;;;;;;;7.60;7.40;;;12.70;99.90;;;;;;5079851;28;20230;-88
2022/10/28 01:46:12;;;;;;;7.90;7.70;;;12.60;99.90;;;;;;5079370;28;20230;-88
2022/10/28 01:48:51;;;;;;;8.20;8.00;;;12.60;99.90;;;;;;5078277;28;20225;-88
2022/10/28 01:51:28;;;;;;;8.17;7.97;;;12.60;99.90;;;;;;5077844;28;20783;-88
2022/10/28 01:53:59;;;;;;;8.20;8.00;;;12.50;99.90;;;;;;5077581;28;20233;-88
2022/10/28 01:59:23;;;;;;;8.20;8.00;;;12.40;99.90;;;;;;5077125;28;20387;-88
2022/10/28 02:01:53;;;;;;;8.00;7.80;;;12.40;99.90;;;;;;5076998;28;20230;-87
2022/10/28 02:04:34;;;;;;;8.00;7.80;;;12.30;99.90;;;;;;5077400;28;20388;-88
2022/10/28 02:07:03;;;;;;;7.97;7.77;;;12.30;99.90;;;;;;5077753;28;20245;-88
2022/10/28 02:09:50;;;;;;;8.10;7.90;;;12.30;99.90;;;;;;5077854;28;20245;-88
2022/10/28 02:12:29;;;;;;;8.00;7.80;;;12.30;99.90;;;;;;5079635;28;20396;-88
2022/10/28 02:15:23;;;;;;;8.03;7.83;;;12.40;99.90;;;;;;5081514;28;20226;-87
2022/10/28 02:18:12;;;;;;;7.90;7.70;;;12.40;99.90;;;;;;5081205;28;20241;-88
2022/10/28 02:20:50;;;;;;;8.20;8.00;;;12.40;99.90;;;;;;5081366;28;20222;-88
2022/10/28 02:23:27;;;;;;;8.13;7.93;;;12.40;99.90;;;;;;5080870;28;20261;-87
2022/10/28 02:26:07;;;;;;;8.20;8.00;;;12.40;99.90;;;;;;5094835;28;20282;-88
2022/10/28 02:28:46;;;;;;;8.00;7.80;;;12.40;99.90;;;;;;5102735;28;20214;-87
2022/10/28 02:34:17;;;;;;;7.97;7.77;;;12.40;99.90;;;;;;5081476;28;20275;-87
2022/10/28 02:36:55;;;;;;;7.90;7.70;;;12.50;99.90;;;;;;5081133;28;20225;-88
2022/10/28 02:39:27;;;;;;;7.80;7.60;;;12.50;99.90;;;;;;5080910;28;20230;-88
2022/10/28 02:42:03;;;;;;;7.60;7.40;;;12.50;99.90;;;;;;5080554;28;20269;-88
2022/10/28 02:44:35;;;;;;;7.93;7.73;;;12.50;99.90;;;;;;5080832;28;20253;-88
2022/10/28 02:47:12;;;;;;;7.97;7.77;;;12.50;99.90;;;;;;5080750;28;20222;-88
2022/10/28 02:49:52;;;;;;;7.80;7.60;;;12.50;99.90;;;;;;5080464;28;20244;-88
2022/10/28 02:52:27;;;;;;;7.57;7.37;;;12.60;99.90;;;;;;5080498;28;20260;-88
2022/10/28 02:54:57;;;;;;;7.70;7.50;;;12.60;99.90;;;;;;5080543;28;20221;-85
2022/10/28 02:57:28;;;;;;;7.90;7.70;;;12.60;99.90;;;;;;5080488;28;20326;-88
2022/10/28 02:59:58;;;;;;;7.80;7.60;;;12.50;99.90;;;;;;5080399;28;20222;-88
2022/10/28 03:02:27;;;;;;;7.70;7.50;;;12.50;99.90;;;;;;5080356;28;20242;-88
2022/10/28 03:04:55;;;;;;;7.70;7.50;;;12.50;99.90;;;;;;5080688;28;20294;-88
2022/10/28 03:10:11;;;;;;;7.83;7.63;;;12.40;99.90;;;;;;5079733;28;20269;-88
2022/10/28 03:12:40;;;;;;;7.60;7.40;;;12.40;99.90;;;;;;5080804;28;20316;-88
2022/10/28 03:15:10;;;;;;;7.53;7.33;;;12.30;99.90;;;;;;5081034;28;20325;-88
2022/10/28 03:17:39;;;;;;;7.60;7.40;;;12.30;99.90;;;;;;5080628;28;20330;-88
2022/10/28 03:20:08;;;;;;;7.60;7.40;;;12.30;99.90;;;;;;5080256;28;20282;-88
2022/10/28 03:22:48;;;;;;;7.53;7.33;;;12.30;99.90;;;;;;5079496;28;20330;-87
2022/10/28 03:25:16;;;;;;;7.30;7.10;;;12.30;99.90;;;;;;5081209;28;20237;-88
2022/10/28 03:27:46;;;;;;;7.60;7.40;;;12.30;99.90;;;;;;5082155;28;20317;-88
2022/10/28 03:30:17;;;;;;;7.53;7.33;;;12.30;99.90;;;;;;5098838;28;20202;-89
2022/10/28 03:32:45;;;;;;;7.40;7.20;;;12.20;99.90;;;;;;5101906;28;20247;-87
2022/10/28 03:35:14;;;;;;;7.40;7.20;;;12.20;99.90;;;;;;5085351;28;20230;-88
2022/10/28 03:37:56;;;;;;;7.20;7.00;;;12.20;99.90;;;;;;5080128;28;20230;-88
2022/10/28 03:40:23;;;;;;;7.60;7.40;;;12.10;99.90;;;;;;5080035;28;20233;-88
2022/10/28 03:42:53;;;;;;;7.20;7.00;;;12.10;99.90;;;;;;5080260;28;20301;-87
2022/10/28 03:45:21;;;;;;;7.40;7.20;;;12.10;99.90;;;;;;5080137;28;20321;-88
2022/10/28 03:47:50;;;;;;;7.20;7.00;;;12.00;99.90;;;;;;5080073;28;20264;-87
2022/10/28 03:50:19;;;;;;;7.10;6.90;;;12.00;99.90;;;;;;5079939;28;20226;-87
2022/10/28 03:53:01;;;;;;;7.20;7.00;;;12.00;99.90;;;;;;5079620;28;20832;-87
2022/10/28 03:55:29;;;;;;;7.20;7.00;;;12.00;99.90;;;;;;5080214;28;20285;-87
2022/10/28 03:57:57;;;;;;;7.20;7.00;;;12.00;99.90;;;;;;5079651;28;20293;-87
2022/10/28 04:00:26;;;;;;;7.50;7.30;;;12.00;99.90;;;;;;5079673;28;20308;-87
2022/10/28 04:02:57;;;;;;;7.40;7.20;;;12.00;99.90;;;;;;5082554;28;20448;-87
2022/10/28 04:05:25;;;;;;;7.23;7.03;;;12.00;99.90;;;;;;5079910;28;20242;-87
2022/10/28 04:08:06;;;;;;;7.20;7.00;;;12.00;99.90;;;;;;5078892;28;20701;-88
2022/10/28 04:11:04;;;;;;;7.40;7.20;;;12.00;99.90;;;;;;5078940;28;20230;-87
2022/10/28 04:13:32;;;;;;;7.40;7.20;;;12.10;99.90;;;;;;5078691;28;20230;-88
2022/10/28 04:16:00;;;;;;;7.17;6.97;;;12.10;99.90;;;;;;5079539;28;20301;-88
2022/10/28 04:18:29;;;;;;;7.30;7.10;;;12.10;99.90;;;;;;5079176;28;20237;-88
2022/10/28 04:20:59;;;;;;;7.40;7.20;;;12.10;99.90;;;;;;5087656;28;20293;-87
2022/10/28 04:26:15;;;;;;;7.30;7.10;;;12.10;99.90;;;;;;5079441;28;20226;-88
2022/10/28 04:28:44;;;;;;;7.47;7.27;;;12.10;99.90;;;;;;5078940;28;20234;-88
2022/10/28 04:31:14;;;;;;;7.30;7.10;;;12.10;99.90;;;;;;5079177;28;20484;-87
2022/10/28 04:33:43;;;;;;;7.30;7.10;;;12.10;99.90;;;;;;5078085;28;20822;-88
2022/10/28 04:36:13;;;;;;;7.80;7.60;;;12.10;99.90;;;;;;5078890;28;20256;-88
2022/10/28 04:41:29;;;;;;;7.20;7.00;;;12.20;99.90;;;;;;5078654;28;20221;-88
2022/10/28 04:43:59;;;;;;;7.30;7.10;;;12.20;99.90;;;;;;5078889;28;20301;-87
2022/10/28 04:46:28;;;;;;;7.60;7.40;;;12.20;99.90;;;;;;5078523;28;20249;-88
2022/10/28 04:48:57;;;;;;;7.30;7.10;;;12.20;99.90;;;;;;5078717;28;20283;-87
2022/10/28 04:51:27;;;;;;;7.30;7.10;;;12.20;99.90;;;;;;5079231;28;20222;-88
2022/10/28 04:56:44;;;;;;;7.60;7.40;;;12.20;99.90;;;;;;5077149;28;20217;-88
2022/10/28 04:59:13;;;;;;;7.50;7.30;;;12.20;99.90;;;;;;5078074;28;21187;-88
2022/10/28 05:01:43;;;;;;;7.40;7.20;;;12.20;99.90;;;;;;5078141;28;20297;-88
2022/10/28 05:04:12;;;;;;;7.53;7.33;;;12.20;99.90;;;;;;5078538;28;20257;-87
2022/10/28 05:06:41;;;;;;;7.50;7.30;;;12.20;99.90;;;;;;5078545;28;20258;-88
2022/10/28 05:11:57;;;;;;;7.50;7.30;;;12.30;99.90;;;;;;5078290;28;20288;-88
2022/10/28 05:14:27;;;;;;;7.57;7.37;;;12.20;99.90;;;;;;5090901;27;20214;-90
2022/10/28 05:16:56;;;;;;;7.60;7.40;;;12.20;99.90;;;;;;5091850;27;20226;-87
2022/10/28 05:19:26;;;;;;;7.40;7.20;;;12.20;99.90;;;;;;5078340;28;20328;-88
2022/10/28 05:21:55;;;;;;;7.53;7.33;;;12.30;99.90;;;;;;5077836;28;20237;-88
2022/10/28 05:24:37;;;;;;;7.60;7.40;;;12.30;99.90;;;;;;5077849;28;20297;-88
2022/10/28 05:27:04;;;;;;;7.60;7.40;;;12.30;99.90;;;;;;5078299;28;20284;-88
2022/10/28 05:29:32;;;;;;;7.60;7.40;;;12.30;99.90;;;;;;5077833;28;20229;-88
2022/10/28 05:32:03;;;;;;;7.60;7.40;;;12.30;99.90;;;;;;5079453;28;20261;-87
2022/10/28 05:34:31;;;;;;;7.40;7.20;;;12.30;99.90;;;;;;5081318;28;20238;-88
2022/10/28 05:37:01;;;;;;;7.37;7.17;;;12.40;99.90;;;;;;5099300;27;20244;-88
2022/10/28 05:42:17;;;;;;;7.70;7.50;;;12.40;99.90;;;;;;5079564;28;20230;-88
2022/10/28 05:44:47;;;;;;;7.70;7.50;;;12.40;99.90;;;;;;5078605;28;20253;-88
2022/10/28 05:47:16;;;;;;;7.60;7.40;;;12.40;99.90;;;;;;5078031;28;20324;-88
2022/10/28 05:49:46;;;;;;;8.20;8.00;;;12.40;99.90;;;;;;5077739;28;20226;-88
2022/10/28 05:52:15;;;;;;;8.00;7.80;;;12.40;99.90;;;;;;5077449;28;20302;-88
2022/10/28 05:54:56;;;;;;;8.23;8.03;;;12.50;99.90;;;;;;5077152;28;20988;-87
2022/10/28 05:57:24;;;;;;;7.87;7.67;;;12.50;99.90;;;;;;5077827;28;20464;-87
2022/10/28 05:59:53;;;;;;;8.27;8.07;;;12.40;99.90;;;;;;5078852;28;20300;-86
2022/10/28 06:02:22;;;;;;;7.97;7.77;;;12.30;99.90;;;;;;5078663;28;20234;-89
2022/10/28 06:04:49;;;;;;;7.90;7.70;;;12.30;99.90;;;;;;5092393;22;20260;-81
2022/10/28 06:07:17;;;;;;;8.17;7.97;;;12.30;99.90;;;;;;5079930;28;20320;-83
2022/10/28 06:09:46;;;;;;;7.90;7.70;;;12.30;99.90;;;;;;5080883;28;20256;-80
2022/10/28 06:12:13;;;;;;;8.00;7.80;;;12.30;99.90;;;;;;5080907;28;20232;-81
2022/10/28 06:14:41;;;;;;;8.30;8.10;;;12.40;99.90;;;;;;5081196;28;20264;-82
2022/10/28 06:17:11;;;;;;;7.90;7.70;;;12.40;99.90;;;;;;5086194;28;20258;-82
2022/10/28 06:19:39;;;;;;;8.00;7.80;;;12.40;99.90;;;;;;5080747;28;20313;-82
2022/10/28 06:22:07;;;;;;;8.00;7.80;;;12.50;99.90;;;;;;5081337;28;20266;-82
2022/10/28 06:24:35;;;;;;;8.20;8.00;;;12.50;99.90;;;;;;5086010;28;20218;-80
2022/10/28 06:27:05;;;;;;;8.10;7.90;;;12.50;99.90;;;;;;5095262;28;20234;-82
2022/10/28 06:29:33;;;;;;;8.13;7.93;;;12.50;99.90;;;;;;5099782;28;20241;-82
2022/10/28 06:32:01;;;;;;;7.97;7.77;;;12.60;99.90;;;;;;5100291;28;20221;-83
2022/10/28 06:34:28;;;;;;;8.10;7.90;;;12.60;99.90;;;;;;5100039;28;20222;-83
2022/10/28 06:36:56;;;;;;;7.67;7.47;;;12.70;99.90;;;;;;5099471;28;20210;-83
2022/10/28 06:39:24;;;;;;;7.67;7.47;;;12.60;99.90;;;;;;5114959;27;20220;-83
2022/10/28 06:41:52;;;;;;;8.00;7.80;;;12.60;99.90;;;;;;5120381;27;20244;-82
2022/10/28 06:44:23;;;;;;;7.83;7.63;;;12.70;99.90;;;;;;5119408;28;20221;-82
2022/10/28 06:46:52;;;;;;;7.77;7.57;;;12.70;99.90;;;;;;5119373;27;20214;-81
2022/10/28 06:49:19;;;;;;;7.70;7.50;;;12.70;99.90;;;;;;5117622;28;20275;-82
2022/10/28 06:51:48;;;;;;;7.80;7.60;;;12.80;99.90;;;;;;5103591;28;20211;-82
2022/10/28 06:54:16;;;;;;;7.70;7.50;;;12.80;99.90;;;;;;5080343;28;20330;-81
2022/10/28 06:56:45;;;;;;;7.63;7.43;;;12.80;99.90;;;;;;5091788;28;20298;-84
2022/10/28 06:59:14;;;;;;;7.60;7.40;;;12.90;99.90;;;;;;5095174;28;20232;-84
2022/10/28 07:01:43;;;;;;;7.30;7.10;;;12.90;99.90;;;;;;5095563;28;20206;-82
2022/10/28 07:04:13;;;;;;;7.13;6.93;;;13.00;99.90;;;;;;5094481;28;20321;-82
2022/10/28 07:06:41;;;;;;;7.10;6.90;;;13.00;99.90;;;;;;5086896;28;20241;-82
2022/10/28 07:09:11;;;;;;;7.20;7.00;;;12.90;99.90;;;;;;5086235;28;20252;-82
2022/10/28 07:11:39;;;;;;;7.27;7.07;;;12.90;99.90;;;;;;5085674;28;20233;-82
2022/10/28 07:14:07;;;;;;;7.00;6.80;;;12.90;99.90;;;;;;5085983;28;20242;-81
2022/10/28 07:16:37;;;;;;;7.47;7.27;;;12.90;99.90;;;;;;5081346;28;20261;-83
2022/10/28 07:19:06;;;;;;;7.60;7.40;;;12.80;99.90;;;;;;5066373;28;20398;-82
2022/10/28 07:21:35;;;;;;;7.50;7.30;;;12.80;99.90;;;;;;5066995;28;20313;-80
2022/10/28 07:24:06;;;;;;;7.37;7.17;;;12.80;99.90;;;;;;5065609;28;20234;-79
2022/10/28 07:26:33;;;;;;;7.20;7.00;;;12.70;99.90;;;;;;5086366;28;20240;-79
2022/10/28 07:29:01;;;;;;;7.20;7.00;;;12.70;99.90;;;;;;5088714;28;20248;-79
2022/10/28 07:31:30;;;;;;;7.30;7.10;;;12.70;99.90;;;;;;5088200;28;20274;-78
2022/10/28 07:33:57;;;;;;;7.33;7.13;;;12.70;99.90;;;;;;5087496;28;20325;-79
2022/10/28 07:36:26;;;;;;;7.30;7.10;;;12.80;99.90;;;;;;5083093;28;20272;-79
2022/10/28 07:38:54;;;;;;;7.10;6.90;;;12.90;99.90;;;;;;5082283;28;20230;-79
2022/10/28 07:41:23;;;;;;;7.10;6.90;;;12.90;99.90;;;;;;5082969;28;20230;-79
2022/10/28 07:43:51;;;;;;;7.50;7.30;;;12.80;99.90;;;;;;5082518;28;20314;-79
2022/10/28 07:46:20;;;;;;;7.33;7.13;;;12.90;99.90;;;;;;5083167;28;20250;-80
2022/10/28 07:48:47;;;;;;;7.70;7.50;;;13.00;99.90;;;;;;5082442;28;20234;-79
2022/10/28 07:51:16;;;;;;;7.67;7.47;;;13.00;99.90;;;;;;5080294;28;20210;-80
2022/10/28 07:53:45;;;;;;;7.90;7.70;;;13.10;99.90;;;;;;5083761;28;20230;-80
2022/10/28 07:56:13;;;;;;;7.73;7.53;;;13.30;99.90;;;;;;5083668;28;20321;-81
2022/10/28 07:58:42;;;;;;;7.90;7.70;;;13.40;99.90;;;;;;5081207;28;20310;-80
2022/10/28 08:01:12;;;;;;;8.03;7.83;;;13.50;99.90;;;;;;5063686;28;20290;-80
2022/10/28 08:03:41;;;;;;;7.93;7.73;;;13.60;99.90;;;;;;5082038;28;20226;-80
2022/10/28 08:06:11;;;;;;;8.13;7.93;;;13.80;99.90;;;;;;5085790;28;20239;-80
2022/10/28 08:08:39;;;;;;;8.20;8.00;;;14.00;99.90;;;;;;5084142;28;20222;-81
2022/10/28 08:11:17;;;;;;;8.27;8.07;;;14.10;99.90;;;;;;5081920;28;20250;-78
2022/10/28 08:13:45;;;;;;;8.23;8.03;;;14.30;99.90;;;;;;5081976;28;20243;-79
2022/10/28 08:16:13;;;;;;;8.13;7.93;;;14.40;99.90;;;;;;5082789;28;20236;-80
2022/10/28 08:18:41;;;;;;;8.23;8.03;;;14.50;99.90;;;;;;5082375;28;20230;-80
2022/10/28 08:21:10;;;;;;;8.50;8.30;;;14.60;99.90;;;;;;5082838;28;20226;-79
2022/10/28 08:23:38;;;;;;;8.30;8.10;;;14.80;99.90;;;;;;5081723;28;20240;-79
2022/10/28 08:26:06;;;;;;;8.70;8.50;;;14.90;99.90;;;;;;5081691;28;20253;-79
2022/10/28 08:28:38;;;;;;;8.85;8.65;;;15.00;99.90;;;;;;5079545;28;20324;-80
2022/10/28 08:31:07;;;;;;;8.82;8.63;;;15.10;99.90;;;;;;5084544;28;20219;-80
2022/10/28 08:33:36;;;;;;;8.60;8.40;;;15.10;99.90;;;;;;5079644;28;20280;-81
2022/10/28 08:36:05;;;;;;;8.85;8.65;;;15.20;99.90;;;;;;5084892;28;20243;-80
2022/10/28 08:38:33;;;;;;;9.10;8.80;;;15.20;99.90;;;;;;5082643;28;20225;-81
2022/10/28 08:41:13;;;;;;;8.77;8.57;;;15.20;99.90;;;;;;5083070;28;20333;-83
2022/10/28 08:44:03;;;;;;;8.85;8.65;;;15.30;99.90;;;;;;5075112;28;20288;-81
2022/10/28 08:46:55;;;;;;;8.73;8.52;;;15.30;99.90;;;;;;5086191;28;20238;-81
2022/10/28 08:49:25;;;;;;;8.90;8.70;;;15.40;99.90;;;;;;5086693;28;20265;-81
2022/10/28 08:51:57;;;;;;;8.88;8.68;;;15.50;99.90;;;;;;5069925;28;20317;-81
2022/10/28 08:54:35;;;;;;;8.60;8.40;;;15.50;99.90;;;;;;5081742;28;20276;-80
2022/10/28 08:57:07;;;;;;;9.10;8.80;;;15.70;99.90;;;;;;5077031;28;20233;-81
2022/10/28 08:59:40;;;;;;;9.20;8.90;;;15.80;99.90;;;;;;5081009;28;20282;-81
2022/10/28 09:02:21;;;;;;;9.30;9.00;;;15.90;99.90;;;;;;5081621;28;20235;-82
2022/10/28 09:04:51;;;;;;;9.55;9.25;;;15.90;99.90;;;;;;5080917;28;20241;-81
2022/10/28 09:07:21;;;;;;;9.13;8.82;;;16.20;99.90;;;;;;5082555;28;20226;-81
2022/10/28 09:09:50;;;;;;;9.35;9.05;;;16.60;99.90;;;;;;5081411;28;20768;-81
2022/10/28 09:12:32;;;;;;;9.32;9.02;;;16.90;99.90;;;;;;5081169;28;20713;-81
2022/10/28 09:15:32;;;;;;;9.20;8.90;;;17.00;99.90;;;;;;5081090;28;20273;-82
2022/10/28 09:18:10;;;;;;;9.30;9.00;;;17.20;99.90;;;;;;5072315;28;20311;-81
2022/10/28 09:20:57;;;;;;;9.65;9.35;;;17.40;99.90;;;;;;5081295;28;20320;-81
2022/10/28 09:23:30;;;;;;;9.40;9.10;;;17.40;99.90;;;;;;5082192;28;20222;-82
2022/10/28 09:26:11;;;;;;;9.60;9.30;;;17.60;99.90;;;;;;5080667;28;20300;-81
2022/10/28 09:28:55;;;;;;;9.85;9.55;;;17.80;99.90;;;;;;5081497;28;20258;-82
2022/10/28 09:31:34;;;;;;;10.02;9.73;;;18.00;99.90;;;;;;5082011;28;20264;-81
2022/10/28 09:34:25;;;;;;;9.90;9.60;;;18.10;99.90;;;;;;5085268;28;20210;-80
2022/10/28 09:36:56;;;;;;;9.93;9.63;;;18.20;99.90;;;;;;5084236;28;20238;-82
2022/10/28 09:39:31;;;;;;;10.27;9.98;;;18.50;99.90;;;;;;5082737;28;20234;-82
2022/10/28 09:42:01;;;;;;;9.75;9.45;;;18.80;99.90;;;;;;5080986;28;20238;-81
2022/10/28 09:44:40;;;;;;;9.95;9.65;;;18.90;99.90;;;;;;5080764;28;20245;-82
2022/10/28 09:47:18;;;;;;;9.77;9.48;;;19.00;99.90;;;;;;5080575;28;20301;-82
2022/10/28 09:49:48;;;;;;;9.98;9.68;;;19.20;99.90;;;;;;5081701;28;20301;-82
2022/10/28 09:52:23;;;;;;;10.20;9.90;;;19.50;99.90;;;;;;5081233;28;20242;-82
2022/10/28 09:54:56;;;;;;;10.20;9.90;;;19.50;99.90;;;;;;5080828;28;20217;-82
2022/10/28 09:57:32;;;;;;;10.07;9.77;;;19.40;99.90;;;;;;5082136;28;20230;-82
2022/10/28 10:00:01;;;;;;;10.30;10.00;;;19.30;99.90;;;;;;5081182;28;20233;-82
2022/10/28 10:02:34;;;;;;;10.10;9.80;;;19.30;99.90;;;;;;5081769;28;20290;-81
2022/10/28 10:05:03;;;;;;;10.35;10.05;;;19.20;99.90;;;;;;5079977;28;20276;-82
2022/10/28 10:07:37;;;;;;;10.43;10.13;;;19.40;99.90;;;;;;5080502;28;20289;-81
2022/10/28 10:10:11;;;;;;;10.60;10.30;;;19.70;99.90;;;;;;5080999;28;20258;-82
2022/10/28 10:12:39;;;;;;;10.02;9.73;;;20.00;99.90;;;;;;5081109;28;21087;-82
2022/10/28 10:15:14;;;;;;;10.40;10.10;;;20.30;99.90;;;;;;5081332;28;20324;-82
2022/10/28 10:17:46;;;;;;;10.20;9.90;;;20.50;99.90;;;;;;5082172;28;20231;-82
2022/10/28 10:20:17;;;;;;;10.07;9.77;;;20.40;99.90;;;;;;5081682;28;20234;-82
2022/10/28 10:22:46;;;;;;;10.35;10.05;;;20.20;99.90;;;;;;5081038;28;20218;-82
2022/10/28 10:25:29;;;;;;;10.50;10.20;;;20.00;99.90;;;;;;5079467;28;20234;-82
2022/10/28 10:28:02;;;;;;;10.35;10.05;;;19.80;99.90;;;;;;5080755;28;20234;-82
2022/10/28 10:30:34;;;;;;;10.65;10.35;;;19.80;99.90;;;;;;5080720;28;20236;-82
2022/10/28 10:33:06;;;;;;;10.60;10.30;;;19.90;99.90;;;;;;5098648;28;20214;-82
2022/10/28 10:35:37;;;;;;;10.85;10.55;;;20.20;99.90;;;;;;5101854;28;20213;-81
2022/10/28 10:38:07;;;;;;;10.55;10.25;;;20.50;99.90;;;;;;5101703;28;20226;-82
2022/10/28 10:40:38;;;;;;;10.50;10.20;;;20.70;99.90;;;;;;5101607;28;20230;-82
2022/10/28 10:43:25;;;;;;;10.82;10.52;;;21.00;99.90;;;;;;5099809;28;20246;-82
2022/10/28 10:46:00;;;;;;;10.63;10.32;;;21.30;99.90;;;;;;5092790;28;20238;-82
2022/10/28 10:48:31;;;;;;;10.40;10.10;;;21.40;99.90;;;;;;5094926;28;20233;-82
2022/10/28 10:51:04;;;;;;;10.30;10.00;;;21.50;99.90;;;;;;5088973;28;20290;-82
2022/10/28 10:53:33;;;;;;;10.30;10.00;;;21.50;99.90;;;;;;5086180;28;20221;-82
2022/10/28 10:56:04;;;;;;;10.23;9.93;;;21.40;99.90;;;;;;5086404;28;20273;-82
2022/10/28 10:58:35;;;;;;;10.90;10.60;;;21.30;99.90;;;;;;5084986;28;20313;-82
2022/10/28 11:01:08;;;;;;;10.40;10.10;;;21.20;99.90;;;;;;5085053;28;20257;-81
2022/10/28 11:03:47;;;;;;;10.57;10.27;;;21.10;99.90;;;;;;5084152;28;20222;-82
2022/10/28 11:06:26;;;;;;;10.68;10.38;;;21.10;99.90;;;;;;5083336;28;20252;-81
2022/10/28 11:09:00;;;;;;;10.57;10.27;;;21.10;99.90;;;;;;5084163;28;20230;-82
2022/10/28 11:11:36;;;;;;;10.50;10.20;;;21.30;99.90;;;;;;5083933;28;20230;-82
2022/10/28 11:14:12;;;;;;;10.52;10.23;;;21.50;99.90;;;;;;5085590;28;20328;-82
2022/10/28 11:16:51;;;;;;;10.90;10.60;;;21.50;99.90;;;;;;5084679;28;20248;-82
2022/10/28 11:19:29;;;;;;;10.85;10.55;;;21.50;99.90;;;;;;5084143;28;20234;-82
2022/10/28 11:22:15;;;;;;;10.90;10.60;;;21.50;99.90;;;;;;5084408;28;20245;-82
2022/10/28 11:25:32;;;;;;;11.00;10.70;;;21.50;99.90;;;;;;5083721;28;20298;-82
2022/10/28 11:28:27;;;;;;;10.88;10.57;;;21.60;99.90;;;;;;5085056;28;20223;-82
2022/10/28 11:31:14;;;;;;;10.88;10.57;;;21.60;99.90;;;;;;5083551;28;20302;-81
2022/10/28 11:33:54;;;;;;;10.77;10.48;;;21.60;99.90;;;;;;5086039;28;20294;-81
2022/10/28 11:36:31;;;;;;;10.95;10.65;;;21.60;99.90;;;;;;5085472;28;20233;-82
2022/10/28 11:39:20;;;;;;;10.73;10.43;;;21.80;99.90;;;;;;5085522;28;20240;-82
2022/10/28 11:42:12;;;;;;;10.98;10.68;;;22.00;99.90;;;;;;5084782;28;20241;-81
2022/10/28 11:44:49;;;;;;;10.85;10.55;;;22.20;99.90;;;;;;5084129;28;20256;-81
2022/10/28 11:47:47;;;;;;;10.73;10.43;;;22.30;99.90;;;;;;5084733;28;20242;-81
2022/10/28 11:50:45;;;;;;;10.52;10.23;;;22.30;99.90;;;;;;5083901;28;20373;-81
2022/10/28 11:53:37;;;;;;;10.77;10.48;;;22.70;99.90;;;;;;5083476;28;20261;-81
2022/10/28 11:56:19;;;;;;;10.77;10.48;;;23.00;99.90;;;;;;5084722;28;20269;-81
2022/10/28 11:59:00;;;;;;;10.85;10.55;;;23.20;99.90;;;;;;5088231;28;20236;-82
2022/10/28 12:01:49;;;;;;;11.10;10.80;;;23.20;99.90;;;;;;5085500;28;20233;-81
2022/10/28 12:04:58;;;;;;;11.07;10.77;;;23.30;99.90;;;;;;5085581;28;20252;-81
2022/10/28 12:11:08;;;;;;;11.32;11.02;;;23.90;99.90;;;;;;5079295;28;20222;-86
2022/10/28 12:14:07;;;;;;;10.98;10.68;;;24.10;99.90;;;;;;5081061;28;20232;-86
2022/10/28 12:16:49;;;;;;;11.13;10.82;;;24.20;99.90;;;;;;5079973;28;20244;-86
2022/10/28 12:19:28;;;;;;;11.10;10.80;;;24.40;99.90;;;;;;5080731;28;20233;-86
2022/10/28 12:22:06;;;;;;;10.63;10.32;;;24.40;99.90;;;;;;5079716;28;20325;-87
2022/10/28 12:24:48;;;;;;;10.48;10.18;;;24.40;99.90;;;;;;5081719;28;20233;-86
2022/10/28 12:27:30;;;;;;;10.77;10.48;;;24.30;99.90;;;;;;5088292;28;20264;-86
2022/10/28 12:30:30;;;;;;;10.60;10.30;;;24.20;99.90;;;;;;5099985;28;20285;-85
2022/10/28 12:33:24;;;;;;;10.40;10.10;;;24.30;99.90;;;;;;5100042;28;20234;-86
2022/10/28 12:39:09;;;;;;;10.98;10.68;;;24.00;99.90;;;;;;5099751;28;20210;-86
2022/10/28 12:41:54;;;;;;;10.77;10.48;;;23.70;99.90;;;;;;5098994;28;20230;-86
2022/10/28 12:44:31;;;;;;;11.05;10.75;;;23.60;99.90;;;;;;5098968;28;20222;-85
2022/10/28 12:47:37;;;;;;;11.02;10.73;;;23.50;99.90;;;;;;5086382;28;20234;-86
2022/10/28 12:53:40;;;;;;;11.40;11.10;;;23.20;99.90;;;;;;5080228;28;20226;-86
2022/10/28 12:56:32;;;;;;;;;;;;;;;;;;;;;
2022/10/28 12:59:28;;;;;;;11.35;11.05;;;22.70;99.90;;;;;;5081138;28;20265;-86
2022/10/28 13:02:09;;;;;;;11.50;11.10;;;22.50;99.90;;;;;;5080747;28;20230;-85
2022/10/28 13:04:46;;;;;;;11.60;11.20;;;22.40;99.90;;;;;;5081943;28;20264;-85
2022/10/28 13:07:58;;;;;;;11.10;10.80;;;22.40;99.90;;;;;;5080051;28;20284;-86
2022/10/28 13:10:52;;;;;;;11.25;10.95;;;22.30;99.90;;;;;;5069732;28;20257;-86
2022/10/28 13:14:07;;;;;;;11.40;11.10;;;22.30;99.90;;;;;;5080994;28;20234;-86
2022/10/28 13:17:20;;;;;;;11.13;10.82;;;22.30;99.90;;;;;;5080781;28;20403;-86
2022/10/28 13:20:18;;;;;;;11.20;10.90;;;22.50;99.90;;;;;;5079751;28;20253;-86
2022/10/28 13:29:12;;;;;;;10.93;10.63;;;23.60;99.90;;;;;;5076623;28;20716;-86
2022/10/28 13:37:43;;;;;;;11.00;10.70;;;24.60;99.90;;;;;;5078674;28;20226;-86
2022/10/28 13:41:06;;;;;;;10.93;10.63;;;24.90;99.90;;;;;;5078695;28;20230;-87
2022/10/28 13:44:44;;;;;;;11.10;10.80;;;25.40;99.90;;;;;;5078559;28;20222;-86
2022/10/28 13:54:00;;;;;;;11.07;10.77;;;26.60;99.90;;;;;;5078362;28;20321;-87
2022/10/28 13:56:54;;;;;;;10.82;10.52;;;26.20;99.90;;;;;;5079670;28;20225;-87
2022/10/28 13:59:48;;;;;;;10.80;10.50;;;26.20;99.90;;;;;;5078671;28;20261;-86
2022/10/28 14:08:04;;;;;;;10.10;9.80;;;25.50;99.90;;;;;;5081662;28;20237;-86
2022/10/28 14:16:36;;;;;;;10.30;10.00;;;25.90;99.90;;;;;;5081941;28;20230;-87
2022/10/28 14:19:21;;;;;;;10.20;9.90;;;25.80;99.90;;;;;;5099373;28;20244;-87
2022/10/28 14:22:04;;;;;;;10.10;9.80;;;25.10;99.90;;;;;;5100159;28;20221;-86
2022/10/28 14:24:47;;;;;;;10.13;9.82;;;24.50;99.90;;;;;;5090971;28;20234;-87
2022/10/28 14:27:48;;;;;;;9.82;9.52;;;24.10;99.90;;;;;;5082884;28;20238;-86
2022/10/28 14:30:37;;;;;;;9.98;9.68;;;23.70;99.90;;;;;;5083304;28;20248;-87